Time;durP1;ratioP1;P1;durP2;ratioP2;P2;SDS_P1;SDS_P2;PMS_P1;PMS_P2;Temp;Humidity;BMP_temperature;BMP_pressure;BME280_temperature;BME280_humidity;BME280_pressure;Samples;Min_cycle;Max_cycle;Signal;HPM_P1;HPM_P2
2022/02/01 00:00:07;;;;;;;21.15;3.30;;;3.60;99.90;;;;;;5113803;28;20047;-51
2022/02/01 00:02:46;;;;;;;23.77;3.25;;;3.60;99.90;;;;;;5114742;28;20048;-50
2022/02/01 00:05:24;;;;;;;19.65;3.47;;;3.50;99.90;;;;;;5113707;28;20027;-50
2022/02/01 00:08:04;;;;;;;29.73;3.97;;;3.50;99.90;;;;;;5111596;27;20042;-50
2022/02/01 00:18:42;;;;;;;26.30;3.78;;;3.60;99.90;;;;;;5114810;28;20510;-51
2022/02/01 00:37:24;;;;;;;26.15;3.65;;;3.70;99.90;;;;;;5114145;28;20526;-52
2022/02/01 00:39:56;;;;;;;20.58;2.97;;;3.70;99.90;;;;;;5105297;28;20036;-48
2022/02/01 00:42:22;;;;;;;20.10;3.67;;;3.70;99.90;;;;;;5107460;28;20044;-52
2022/02/01 00:44:49;;;;;;;17.58;2.78;;;3.70;99.90;;;;;;5094016;28;20484;-50
2022/02/01 00:47:15;;;;;;;15.57;2.65;;;3.70;99.90;;;;;;5082752;28;20090;-52
2022/02/01 00:49:42;;;;;;;18.38;2.70;;;3.70;99.90;;;;;;5113064;28;20090;-51
2022/02/01 00:52:07;;;;;;;17.02;2.50;;;3.80;99.90;;;;;;5114063;28;20043;-49
2022/02/01 00:54:33;;;;;;;20.90;2.75;;;3.70;99.90;;;;;;5102098;28;20040;-49
2022/02/01 00:56:59;;;;;;;22.95;2.85;;;3.80;99.90;;;;;;5094256;28;20040;-50
2022/02/01 00:59:25;;;;;;;20.13;3.65;;;3.80;99.90;;;;;;5093451;28;20476;-51
2022/02/01 01:01:51;;;;;;;21.63;3.05;;;3.80;99.90;;;;;;5093209;28;20044;-51
2022/02/01 01:04:16;;;;;;;18.92;2.30;;;3.70;99.90;;;;;;5112531;28;20088;-48
2022/02/01 01:06:42;;;;;;;18.42;2.90;;;3.80;99.90;;;;;;5113775;28;20050;-49
2022/02/01 01:09:07;;;;;;;12.77;2.00;;;3.80;99.90;;;;;;5110642;28;20036;-52
2022/02/01 01:11:33;;;;;;;18.30;3.03;;;3.80;99.90;;;;;;5113544;28;20044;-50
2022/02/01 01:38:54;;;;;;;12.40;2.15;;;3.90;99.90;;;;;;5101864;28;20054;-52
2022/02/01 01:54:05;;;;;;;18.30;3.17;;;4.00;99.90;;;;;;5092717;28;20055;-52
2022/02/01 01:56:33;;;;;;;13.77;2.60;;;4.00;99.90;;;;;;5093051;28;20036;-52
2022/02/01 01:59:01;;;;;;;17.25;2.78;;;4.00;99.90;;;;;;5092208;28;20046;-50
2022/02/01 02:01:28;;;;;;;13.90;2.70;;;4.00;99.90;;;;;;5092612;28;20472;-49
2022/02/01 02:03:54;;;;;;;9.63;2.60;;;4.00;99.90;;;;;;5074122;28;20072;-49
2022/02/01 02:06:20;;;;;;;17.73;2.65;;;4.00;99.90;;;;;;5105510;28;20070;-48
2022/02/01 02:08:49;;;;;;;13.18;2.35;;;4.00;99.90;;;;;;5109292;28;20031;-52
2022/02/01 02:11:40;;;;;;;15.95;2.70;;;4.10;99.90;;;;;;5110066;28;20032;-52
2022/02/01 02:14:18;;;;;;;20.77;3.20;;;4.10;99.90;;;;;;5098340;28;20042;-52
2022/02/01 02:16:47;;;;;;;16.95;2.40;;;4.10;99.90;;;;;;5112464;28;20046;-50
2022/02/01 02:19:13;;;;;;;17.10;2.53;;;4.10;99.90;;;;;;5104531;28;20032;-52
2022/02/01 02:21:39;;;;;;;16.10;2.75;;;4.20;99.90;;;;;;5092310;28;20051;-49
2022/02/01 02:24:06;;;;;;;18.02;2.28;;;4.20;99.90;;;;;;5096518;28;20038;-52
2022/02/01 02:26:33;;;;;;;15.75;2.30;;;4.20;99.90;;;;;;5112065;28;20043;-49
2022/02/01 02:28:59;;;;;;;14.02;2.25;;;4.20;99.90;;;;;;5112506;28;20414;-51
2022/02/01 02:31:25;;;;;;;14.15;2.13;;;4.20;99.90;;;;;;5112180;28;20050;-52
2022/02/01 02:34:08;;;;;;;10.32;2.10;;;4.20;99.90;;;;;;5105004;28;20024;-50
2022/02/01 02:36:39;;;;;;;18.75;2.85;;;4.20;99.90;;;;;;5102076;28;20123;-52
2022/02/01 02:39:09;;;;;;;14.45;2.17;;;4.20;99.90;;;;;;5112115;28;20088;-50
2022/02/01 02:41:38;;;;;;;12.32;2.05;;;4.20;99.90;;;;;;5092309;28;20111;-49
2022/02/01 02:46:53;;;;;;;18.05;2.80;;;4.30;99.90;;;;;;5092307;28;20058;-51
2022/02/01 02:49:21;;;;;;;18.15;3.00;;;4.30;99.90;;;;;;5094026;28;20043;-48
2022/02/01 02:51:47;;;;;;;18.73;2.33;;;4.30;99.90;;;;;;5092335;28;20221;-50
2022/02/01 02:54:24;;;;;;;16.65;2.20;;;4.40;99.90;;;;;;5112059;28;20089;-51
2022/02/01 02:56:53;;;;;;;15.95;2.00;;;4.40;99.90;;;;;;5111962;28;20051;-51
2022/02/01 02:59:21;;;;;;;12.85;2.10;;;4.40;99.90;;;;;;5113038;28;20036;-52
2022/02/01 03:01:47;;;;;;;16.73;2.17;;;4.40;99.90;;;;;;5110463;28;20323;-48
2022/02/01 03:04:18;;;;;;;10.32;1.58;;;4.40;99.90;;;;;;5110939;28;20031;-52
2022/02/01 03:06:45;;;;;;;8.73;1.50;;;4.40;99.90;;;;;;5109642;28;20040;-51
2022/02/01 03:09:12;;;;;;;12.35;2.35;;;4.50;99.90;;;;;;5091504;28;20097;-49
2022/02/01 03:11:39;;;;;;;9.77;2.25;;;4.50;99.90;;;;;;5098465;28;20051;-52
2022/02/01 03:14:18;;;;;;;10.65;1.60;;;4.40;99.90;;;;;;5111634;28;20031;-51
2022/02/01 03:22:13;;;;;;;13.32;1.63;;;4.50;99.90;;;;;;5076388;28;20131;-49
2022/02/01 03:24:38;;;;;;;9.30;1.40;;;4.50;99.90;;;;;;5091217;28;20111;-52
2022/02/01 03:27:04;;;;;;;10.15;1.38;;;4.50;99.90;;;;;;5092671;28;20484;-49
2022/02/01 03:29:30;;;;;;;12.25;1.58;;;4.50;99.90;;;;;;5095312;28;20408;-50
2022/02/01 03:31:55;;;;;;;8.13;1.23;;;4.50;99.90;;;;;;5107476;28;20097;-51
2022/02/01 03:34:21;;;;;;;8.95;1.35;;;4.50;99.90;;;;;;5115459;28;20039;-50
2022/02/01 03:36:48;;;;;;;12.95;1.73;;;4.50;99.90;;;;;;5096910;28;20134;-48
2022/02/01 03:39:16;;;;;;;9.25;1.55;;;4.40;99.90;;;;;;5095775;28;20039;-51
2022/02/01 03:41:41;;;;;;;11.25;1.98;;;4.40;99.90;;;;;;5115062;28;20563;-50
2022/02/01 03:44:07;;;;;;;12.55;1.50;;;4.40;99.90;;;;;;5115552;28;20047;-52
2022/02/01 03:46:33;;;;;;;10.95;1.35;;;4.40;99.90;;;;;;5105975;28;20139;-52
2022/02/01 03:48:58;;;;;;;7.00;1.02;;;4.40;99.90;;;;;;5097452;28;20089;-50
2022/02/01 03:51:24;;;;;;;4.00;1.02;;;4.40;99.90;;;;;;5094558;28;20044;-51
2022/02/01 03:53:49;;;;;;;9.98;1.20;;;4.40;99.90;;;;;;5094857;28;20324;-52
2022/02/01 03:56:15;;;;;;;6.85;1.30;;;4.40;99.90;;;;;;5093500;28;20097;-52
2022/02/01 03:58:41;;;;;;;7.70;1.30;;;4.40;99.90;;;;;;5094798;28;20032;-50
2022/02/01 04:01:06;;;;;;;10.18;1.30;;;4.40;99.90;;;;;;5113986;28;20046;-49
2022/02/01 04:03:32;;;;;;;10.68;1.23;;;4.40;99.90;;;;;;5115196;28;20046;-49
2022/02/01 04:05:59;;;;;;;7.00;0.85;;;4.30;99.90;;;;;;5114907;28;20044;-51
2022/02/01 04:08:25;;;;;;;8.38;1.17;;;4.30;99.90;;;;;;5076364;28;20035;-52
2022/02/01 04:10:51;;;;;;;7.97;1.50;;;4.30;99.90;;;;;;5114901;28;20043;-49
2022/02/01 04:13:19;;;;;;;8.20;1.63;;;4.30;99.90;;;;;;5114834;28;20506;-49
2022/02/01 04:15:46;;;;;;;11.32;1.40;;;4.20;99.90;;;;;;5104055;28;20036;-53
2022/02/01 04:18:12;;;;;;;10.07;1.77;;;4.20;99.90;;;;;;5107980;28;20039;-51
2022/02/01 04:20:37;;;;;;;9.30;1.52;;;4.20;99.90;;;;;;5114568;28;20050;-52
2022/02/01 04:23:04;;;;;;;10.57;1.40;;;4.20;99.90;;;;;;5114402;28;20031;-52
2022/02/01 04:25:29;;;;;;;10.57;1.48;;;4.10;99.90;;;;;;5114382;28;20517;-50
2022/02/01 04:27:55;;;;;;;7.93;1.73;;;4.20;99.90;;;;;;5114612;28;20040;-52
2022/02/01 04:30:21;;;;;;;9.02;1.27;;;4.20;99.90;;;;;;5107309;28;20032;-51
2022/02/01 04:32:53;;;;;;;13.60;1.67;;;4.20;99.90;;;;;;5077269;28;20039;-50
2022/02/01 04:35:24;;;;;;;11.47;1.60;;;4.20;99.90;;;;;;5093717;28;20043;-50
2022/02/01 04:37:54;;;;;;;13.85;2.45;;;4.20;99.90;;;;;;5098747;28;20422;-52
2022/02/01 04:40:20;;;;;;;5.68;1.50;;;4.20;99.90;;;;;;5114361;28;20035;-50
2022/02/01 04:42:46;;;;;;;10.77;2.28;;;4.20;99.90;;;;;;5115444;28;20035;-51
2022/02/01 04:45:15;;;;;;;11.50;1.70;;;4.20;99.90;;;;;;5092609;28;20040;-52
2022/02/01 04:47:41;;;;;;;10.48;1.45;;;4.20;99.90;;;;;;5109583;28;20043;-50
2022/02/01 04:50:13;;;;;;;12.57;1.58;;;4.20;99.90;;;;;;5114067;28;20119;-50
2022/02/01 04:52:41;;;;;;;14.30;1.95;;;4.30;99.90;;;;;;5096977;28;20075;-49
2022/02/01 04:55:10;;;;;;;10.45;1.65;;;4.30;99.90;;;;;;5112565;28;20082;-52
2022/02/01 04:57:43;;;;;;;9.93;1.90;;;4.30;99.90;;;;;;5113320;28;20071;-52
2022/02/01 05:00:09;;;;;;;10.38;1.77;;;4.30;99.90;;;;;;5100158;28;20093;-53
2022/02/01 05:02:36;;;;;;;16.05;2.30;;;4.30;99.90;;;;;;5113962;28;20109;-48
2022/02/01 05:05:02;;;;;;;12.40;1.90;;;4.30;99.90;;;;;;5114511;28;20099;-51
2022/02/01 05:07:27;;;;;;;10.40;2.15;;;4.30;99.90;;;;;;5114465;28;20126;-49
2022/02/01 05:09:58;;;;;;;11.15;1.92;;;4.30;99.90;;;;;;5112859;28;20487;-48
2022/02/01 05:12:23;;;;;;;11.80;2.67;;;4.40;99.90;;;;;;5100052;28;20051;-51
2022/02/01 05:14:49;;;;;;;10.52;2.15;;;4.40;99.90;;;;;;5096932;28;20024;-51
2022/02/01 05:17:16;;;;;;;14.70;2.10;;;4.40;99.90;;;;;;5107512;28;20125;-51
2022/02/01 05:22:11;;;;;;;9.60;2.03;;;4.40;99.90;;;;;;5113571;28;20047;-49
2022/02/01 05:24:38;;;;;;;14.35;2.15;;;4.40;99.90;;;;;;5113170;28;20199;-51
2022/02/01 05:27:09;;;;;;;12.82;2.20;;;4.40;99.90;;;;;;5113127;28;20403;-49
2022/02/01 05:29:36;;;;;;;17.45;2.38;;;4.40;99.90;;;;;;5097649;27;20040;-51
2022/02/01 05:32:14;;;;;;;12.85;2.08;;;4.50;99.90;;;;;;5095056;28;20044;-49
2022/02/01 05:34:39;;;;;;;17.90;2.53;;;4.50;99.90;;;;;;5109186;28;20115;-49
2022/02/01 05:37:05;;;;;;;14.80;2.28;;;4.50;99.90;;;;;;5114483;28;20059;-53
2022/02/01 05:39:31;;;;;;;13.93;2.50;;;4.50;99.90;;;;;;5101072;28;20084;-50
2022/02/01 05:41:58;;;;;;;16.33;2.65;;;4.50;99.90;;;;;;5113114;28;20100;-51
2022/02/01 05:44:23;;;;;;;12.07;2.00;;;4.50;99.90;;;;;;5113070;28;20054;-51
2022/02/01 05:46:49;;;;;;;13.00;2.30;;;4.50;99.90;;;;;;5097842;28;20551;-49
2022/02/01 05:49:17;;;;;;;15.45;2.55;;;4.50;99.90;;;;;;5092722;28;20108;-49
2022/02/01 05:51:42;;;;;;;13.70;2.80;;;4.50;99.90;;;;;;5092130;28;20036;-48
2022/02/01 05:54:08;;;;;;;15.70;2.63;;;4.50;99.90;;;;;;5092740;28;20070;-48
2022/02/01 05:56:34;;;;;;;17.45;2.83;;;4.50;99.90;;;;;;5092240;28;20059;-51
2022/02/01 05:58:59;;;;;;;12.60;2.08;;;4.50;99.90;;;;;;5092494;28;20043;-48
2022/02/01 06:01:25;;;;;;;13.38;2.08;;;4.50;99.90;;;;;;5092509;28;20345;-49
2022/02/01 06:03:51;;;;;;;15.63;3.15;;;4.50;99.90;;;;;;5092918;28;20035;-49
2022/02/01 06:06:16;;;;;;;15.13;2.40;;;4.60;99.90;;;;;;5092307;28;20032;-50
2022/02/01 06:08:42;;;;;;;17.02;2.70;;;4.60;99.90;;;;;;5103900;28;20168;-50
2022/02/01 06:11:07;;;;;;;13.45;2.25;;;4.60;99.90;;;;;;5103789;28;20499;-50
2022/02/01 06:13:36;;;;;;;11.20;2.30;;;4.60;99.90;;;;;;5096708;28;20036;-50
2022/02/01 06:16:04;;;;;;;18.75;3.42;;;4.60;99.90;;;;;;5095996;28;20047;-51
2022/02/01 06:18:31;;;;;;;17.42;2.63;;;4.70;99.90;;;;;;5094145;28;20036;-52
2022/02/01 06:20:57;;;;;;;15.07;2.85;;;4.70;99.90;;;;;;5102824;28;20496;-50
2022/02/01 06:23:22;;;;;;;16.52;2.38;;;4.60;99.90;;;;;;5105965;28;20126;-51
2022/02/01 06:25:50;;;;;;;20.35;2.85;;;4.70;99.90;;;;;;5112276;28;20043;-49
2022/02/01 06:28:20;;;;;;;18.42;2.80;;;4.70;99.90;;;;;;5101898;28;20114;-48
2022/02/01 06:30:47;;;;;;;14.98;3.00;;;4.60;99.90;;;;;;5104826;28;20047;-51
2022/02/01 06:33:13;;;;;;;13.32;2.65;;;4.60;99.90;;;;;;5092524;28;20043;-53
2022/02/01 06:35:38;;;;;;;14.02;2.58;;;4.70;99.90;;;;;;5100586;28;20154;-49
2022/02/01 06:38:04;;;;;;;14.10;2.78;;;4.70;99.90;;;;;;5100656;28;20494;-51
2022/02/01 06:40:30;;;;;;;17.65;3.00;;;4.70;99.90;;;;;;5103646;28;20061;-52
2022/02/01 06:42:56;;;;;;;14.95;3.10;;;4.70;99.90;;;;;;5109887;28;20035;-51
2022/02/01 06:45:22;;;;;;;17.67;3.10;;;4.70;99.90;;;;;;5107632;28;20031;-51
2022/02/01 06:47:48;;;;;;;14.57;3.10;;;4.80;99.90;;;;;;5091802;28;20040;-51
2022/02/01 06:50:19;;;;;;;20.80;3.15;;;4.80;99.90;;;;;;5103389;28;20119;-52
2022/02/01 06:52:44;;;;;;;17.17;3.25;;;4.70;99.90;;;;;;5098153;28;20518;-51
2022/02/01 06:55:12;;;;;;;15.65;3.20;;;4.80;99.90;;;;;;5109006;28;20044;-55
2022/02/01 06:57:38;;;;;;;17.83;3.70;;;4.80;99.90;;;;;;5103661;28;20483;-51
2022/02/01 07:00:07;;;;;;;19.02;3.20;;;4.80;99.90;;;;;;5111908;28;20587;-52
2022/02/01 07:05:01;;;;;;;21.25;4.00;;;4.80;99.90;;;;;;5091549;28;20047;-47
2022/02/01 07:07:27;;;;;;;22.25;4.00;;;4.80;99.90;;;;;;5081666;28;20036;-49
2022/02/01 07:09:52;;;;;;;21.50;4.50;;;4.90;99.90;;;;;;5084582;28;20047;-50
2022/02/01 07:12:18;;;;;;;23.30;4.20;;;4.90;99.90;;;;;;5085138;28;20036;-49
2022/02/01 07:14:43;;;;;;;17.08;4.93;;;4.90;99.90;;;;;;5091705;28;20032;-50
2022/02/01 07:17:09;;;;;;;20.83;4.07;;;4.90;99.90;;;;;;5086286;28;20648;-47
2022/02/01 07:19:35;;;;;;;19.90;4.47;;;4.90;99.90;;;;;;5081470;28;20052;-47
2022/02/01 07:22:00;;;;;;;21.15;4.82;;;4.90;99.90;;;;;;5078444;28;20040;-50
2022/02/01 07:24:29;;;;;;;19.02;4.95;;;4.90;99.90;;;;;;5078743;28;20060;-48
2022/02/01 07:26:58;;;;;;;20.35;5.30;;;4.90;99.90;;;;;;5076376;28;20101;-50
2022/02/01 07:29:25;;;;;;;24.88;5.20;;;4.80;99.90;;;;;;5080177;28;20044;-50
2022/02/01 07:31:52;;;;;;;23.35;5.97;;;4.90;99.90;;;;;;5068444;28;20519;-49
2022/02/01 07:34:17;;;;;;;21.10;5.30;;;4.90;99.90;;;;;;5089364;28;20044;-49
2022/02/01 07:36:43;;;;;;;23.60;5.68;;;4.80;99.90;;;;;;5083410;28;20056;-50
2022/02/01 07:39:10;;;;;;;16.67;5.47;;;4.80;99.90;;;;;;5093441;28;20461;-50
2022/02/01 07:41:36;;;;;;;19.15;5.93;;;4.80;99.90;;;;;;5091604;28;20075;-51
2022/02/01 07:44:02;;;;;;;24.20;6.18;;;4.80;99.90;;;;;;5094264;28;20040;-50
2022/02/01 07:46:29;;;;;;;20.27;5.88;;;4.80;99.90;;;;;;5092047;28;20036;-50
2022/02/01 07:48:55;;;;;;;20.60;5.80;;;4.80;99.90;;;;;;5091858;28;20105;-53
2022/02/01 07:51:20;;;;;;;19.38;6.10;;;4.80;99.90;;;;;;5093225;28;20044;-50
2022/02/01 07:53:46;;;;;;;16.40;6.07;;;4.80;99.90;;;;;;5095199;28;20042;-51
2022/02/01 07:56:13;;;;;;;18.92;7.20;;;4.90;99.90;;;;;;5093274;28;20024;-50
2022/02/01 07:58:39;;;;;;;17.20;7.40;;;4.80;99.90;;;;;;5086012;28;20432;-51
2022/02/01 08:01:05;;;;;;;20.20;7.47;;;4.90;99.90;;;;;;5088016;28;20131;-55
2022/02/01 08:03:30;;;;;;;18.30;8.38;;;4.80;99.90;;;;;;5081843;28;20383;-51
2022/02/01 08:05:56;;;;;;;19.25;8.68;;;4.90;99.90;;;;;;5083721;28;20483;-53
2022/02/01 08:08:21;;;;;;;21.33;9.15;;;4.90;99.90;;;;;;5081124;28;20052;-51
2022/02/01 08:10:51;;;;;;;23.50;9.68;;;4.90;99.90;;;;;;5083085;28;20033;-52
2022/02/01 08:18:46;;;;;;;19.02;9.43;;;5.00;99.90;;;;;;5087410;28;20066;-52
2022/02/01 08:21:19;;;;;;;21.38;11.05;;;5.10;99.90;;;;;;5086672;28;20039;-52
2022/02/01 08:23:44;;;;;;;20.05;10.52;;;5.10;99.90;;;;;;5083793;28;20060;-50
2022/02/01 08:26:10;;;;;;;19.00;9.85;;;5.10;99.90;;;;;;5085756;28;20488;-51
2022/02/01 08:28:36;;;;;;;19.33;9.43;;;5.10;99.90;;;;;;5087845;28;20062;-49
2022/02/01 08:31:02;;;;;;;18.27;9.93;;;5.20;99.90;;;;;;5080235;28;20040;-52
2022/02/01 08:33:27;;;;;;;15.93;9.82;;;5.20;99.90;;;;;;5085108;28;20070;-51
2022/02/01 08:35:53;;;;;;;16.33;10.38;;;5.20;99.90;;;;;;5084461;28;20055;-50
2022/02/01 08:38:19;;;;;;;17.83;9.88;;;5.30;99.90;;;;;;5081290;28;20120;-53
2022/02/01 08:40:48;;;;;;;17.48;9.40;;;5.30;99.90;;;;;;5083627;28;20036;-53
2022/02/01 08:43:15;;;;;;;17.88;9.75;;;5.30;99.90;;;;;;5084935;28;20046;-53
2022/02/01 08:45:42;;;;;;;21.20;9.88;;;5.30;99.90;;;;;;5087367;28;20046;-52
2022/02/01 08:48:08;;;;;;;16.42;8.18;;;5.40;99.90;;;;;;5083684;28;20032;-51
2022/02/01 08:50:35;;;;;;;14.52;9.07;;;5.40;99.90;;;;;;5071466;28;20038;-49
2022/02/01 08:53:16;;;;;;;17.40;8.63;;;5.40;99.90;;;;;;5088398;28;20093;-53
2022/02/01 08:58:22;;;;;;;17.10;9.73;;;5.50;99.90;;;;;;5082524;28;20040;-50
2022/02/01 09:00:47;;;;;;;15.82;8.63;;;5.50;99.90;;;;;;5073519;28;20043;-52
2022/02/01 09:03:13;;;;;;;14.38;8.77;;;5.60;99.90;;;;;;5087848;28;20385;-51
2022/02/01 09:05:48;;;;;;;16.30;9.18;;;5.60;99.90;;;;;;5089469;28;20071;-49
2022/02/01 09:08:14;;;;;;;16.33;8.77;;;5.60;99.90;;;;;;5081895;28;20032;-50
2022/02/01 09:10:41;;;;;;;13.85;8.48;;;5.60;99.90;;;;;;5087166;28;20032;-51
2022/02/01 09:13:07;;;;;;;15.32;8.13;;;5.70;99.90;;;;;;5085803;28;20043;-49
2022/02/01 09:15:33;;;;;;;14.05;8.18;;;5.70;99.90;;;;;;5079555;28;20028;-50
2022/02/01 09:18:00;;;;;;;15.15;8.07;;;5.70;99.90;;;;;;5086109;28;20051;-49
2022/02/01 09:20:26;;;;;;;14.75;8.77;;;5.70;99.90;;;;;;5085717;28;20123;-52
2022/02/01 09:22:52;;;;;;;13.32;7.70;;;5.70;99.90;;;;;;5085393;28;20032;-52
2022/02/01 09:25:19;;;;;;;15.80;7.53;;;5.70;99.90;;;;;;5082769;28;20036;-49
2022/02/01 09:27:46;;;;;;;14.25;7.32;;;5.80;99.90;;;;;;5088495;28;20041;-51
2022/02/01 09:30:14;;;;;;;13.73;7.70;;;5.80;99.90;;;;;;5083919;28;20036;-52
2022/02/01 09:32:40;;;;;;;14.43;7.53;;;5.80;99.90;;;;;;5091304;28;20036;-50
2022/02/01 09:35:06;;;;;;;13.48;7.28;;;5.80;99.90;;;;;;5092603;28;20680;-52
2022/02/01 09:37:31;;;;;;;11.68;6.70;;;5.80;99.90;;;;;;5089147;28;20141;-53
2022/02/01 09:39:57;;;;;;;11.07;6.78;;;5.90;99.90;;;;;;5075978;28;20107;-51
2022/02/01 09:42:27;;;;;;;12.98;7.13;;;6.00;99.90;;;;;;5084720;28;20044;-49
2022/02/01 09:44:53;;;;;;;13.10;6.80;;;6.00;99.90;;;;;;5076088;28;20047;-50
2022/02/01 09:47:41;;;;;;;11.00;6.65;;;6.00;99.90;;;;;;5084636;28;20040;-49
2022/02/01 09:53:38;;;;;;;10.07;5.95;;;6.10;99.90;;;;;;5303344;22;20540;-49
2022/02/01 09:56:05;;;;;;;10.75;6.00;;;6.20;99.90;;;;;;4998027;28;20042;-49
2022/02/01 09:58:35;;;;;;;7.97;5.03;;;6.20;99.90;;;;;;4999069;28;20041;-53
2022/02/01 10:01:25;;;;;;;9.38;5.70;;;6.30;99.90;;;;;;4991768;28;20601;-50
2022/02/01 10:04:09;;;;;;;7.45;4.85;;;6.30;99.90;;;;;;4986242;28;20061;-52
2022/02/01 10:06:37;;;;;;;8.13;4.78;;;6.40;99.90;;;;;;5018614;22;20486;-52
2022/02/01 10:09:14;;;;;;;9.00;4.80;;;6.40;99.90;;;;;;4992206;28;20070;-52
2022/02/01 10:11:48;;;;;;;6.63;4.10;;;6.50;99.90;;;;;;4989776;28;20481;-51
2022/02/01 10:14:25;;;;;;;6.20;3.20;;;6.60;99.90;;;;;;4988386;28;20042;-50
2022/02/01 10:16:54;;;;;;;7.95;3.60;;;6.60;99.90;;;;;;4989639;28;20428;-52
2022/02/01 10:19:22;;;;;;;4.85;2.78;;;6.70;99.90;;;;;;4975535;28;20038;-52
2022/02/01 10:21:52;;;;;;;5.07;2.83;;;6.70;99.90;;;;;;4976382;28;20097;-53
2022/02/01 10:24:32;;;;;;;5.00;2.90;;;6.80;99.90;;;;;;4980491;28;20097;-54
2022/02/01 10:27:18;;;;;;;4.22;2.63;;;6.90;99.90;;;;;;4985994;28;20073;-53
2022/02/01 10:30:01;;;;;;;3.95;2.65;;;6.90;99.90;;;;;;4987682;28;20046;-53
2022/02/01 10:33:04;;;;;;;4.50;2.80;;;7.00;99.90;;;;;;4990206;28;20125;-52
2022/02/01 10:38:18;;;;;;;3.95;2.58;;;7.10;99.90;;;;;;4976052;28;20038;-52
2022/02/01 10:40:51;;;;;;;3.83;2.28;;;7.10;99.90;;;;;;4981568;28;20454;-50
2022/02/01 10:43:35;;;;;;;5.40;2.92;;;7.10;99.90;;;;;;4982320;28;20031;-52
2022/02/01 10:46:09;;;;;;;4.10;2.40;;;7.20;99.90;;;;;;4980864;28;20035;-52
2022/02/01 10:48:35;;;;;;;3.83;2.33;;;7.20;99.90;;;;;;4981499;28;20042;-50
2022/02/01 10:51:12;;;;;;;5.07;2.67;;;7.20;99.90;;;;;;4980639;28;20509;-52
2022/02/01 10:53:38;;;;;;;4.15;2.50;;;7.20;99.90;;;;;;4982343;28;20046;-52
2022/02/01 10:56:07;;;;;;;3.97;2.40;;;7.20;99.90;;;;;;4976680;28;20467;-53
2022/02/01 10:58:33;;;;;;;4.15;2.70;;;7.20;99.90;;;;;;4983714;28;20042;-51
2022/02/01 11:01:00;;;;;;;3.65;2.30;;;7.20;99.90;;;;;;4979014;28;20411;-54
2022/02/01 11:03:26;;;;;;;4.53;2.53;;;7.30;99.90;;;;;;4983653;28;20089;-51
2022/02/01 11:05:55;;;;;;;3.80;2.42;;;7.30;99.90;;;;;;4977087;28;20503;-51
2022/02/01 11:08:22;;;;;;;4.90;2.72;;;7.30;99.90;;;;;;4984751;28;20046;-53
2022/02/01 11:10:50;;;;;;;8.10;3.00;;;7.30;99.90;;;;;;4981010;28;20046;-53
2022/02/01 11:13:16;;;;;;;4.85;2.40;;;7.30;99.90;;;;;;4976176;28;20043;-53
2022/02/01 11:16:02;;;;;;;5.28;2.50;;;7.40;99.90;;;;;;4976382;28;20479;-53
2022/02/01 11:18:28;;;;;;;4.10;2.70;;;7.40;99.90;;;;;;4983701;28;20414;-52
2022/02/01 11:21:15;;;;;;;5.32;2.13;;;7.40;99.90;;;;;;4983848;28;20035;-52
2022/02/01 11:24:08;;;;;;;2.75;1.70;;;7.50;99.90;;;;;;4979086;28;20121;-52
2022/02/01 11:31:48;;;;;;;2.85;1.85;;;7.50;99.90;;;;;;4985449;28;20090;-52
2022/02/01 11:34:19;;;;;;;4.28;2.10;;;7.50;99.90;;;;;;4983715;28;20121;-52
2022/02/01 11:36:45;;;;;;;3.90;1.80;;;7.60;99.90;;;;;;4986063;28;20036;-50
2022/02/01 11:39:12;;;;;;;7.05;2.40;;;7.60;99.90;;;;;;4980222;28;20043;-52
2022/02/01 11:41:41;;;;;;;2.70;1.75;;;7.60;99.90;;;;;;4982731;28;20030;-52
2022/02/01 11:44:20;;;;;;;3.97;2.13;;;7.70;99.90;;;;;;4981311;28;20046;-50
2022/02/01 11:47:10;;;;;;;4.15;1.95;;;7.70;99.90;;;;;;4978737;28;20137;-52
2022/02/01 11:49:37;;;;;;;4.68;2.10;;;7.80;99.90;;;;;;4979536;28;20042;-54
2022/02/01 11:52:12;;;;;;;3.95;2.10;;;7.80;99.90;;;;;;4982736;28;20049;-53
2022/02/01 11:54:39;;;;;;;5.32;2.15;;;7.80;99.90;;;;;;4989691;28;20165;-53
2022/02/01 11:57:16;;;;;;;5.05;2.28;;;7.80;99.90;;;;;;4994570;28;20038;-53
2022/02/01 12:00:06;;;;;;;6.82;2.50;;;7.80;99.90;;;;;;4994050;28;20465;-53
2022/02/01 12:02:39;;;;;;;5.35;2.40;;;7.80;99.90;;;;;;4984357;28;20050;-53
2022/02/01 12:05:11;;;;;;;6.95;2.92;;;7.80;99.90;;;;;;4994374;28;20042;-53
2022/02/01 12:07:46;;;;;;;9.52;3.45;;;7.80;99.90;;;;;;4990834;28;20046;-52
2022/02/01 12:10:17;;;;;;;9.82;3.00;;;7.80;99.90;;;;;;4994255;28;20073;-51
2022/02/01 12:12:43;;;;;;;9.07;3.50;;;7.80;99.90;;;;;;4981196;28;20038;-54
2022/02/01 12:15:09;;;;;;;11.93;3.75;;;7.80;99.90;;;;;;4981326;28;20037;-51
2022/02/01 12:17:41;;;;;;;10.65;4.40;;;7.90;99.90;;;;;;4980374;28;20038;-53
2022/02/01 12:20:12;;;;;;;13.90;5.10;;;7.90;99.90;;;;;;4981641;28;20038;-53
2022/02/01 12:22:54;;;;;;;14.93;4.80;;;7.90;99.90;;;;;;4983470;28;20093;-52
2022/02/01 12:25:19;;;;;;;13.60;4.95;;;7.90;99.90;;;;;;4983476;28;20043;-53
2022/02/01 12:27:45;;;;;;;18.10;4.97;;;7.90;99.90;;;;;;4980618;28;20046;-52
2022/02/01 12:30:11;;;;;;;17.70;5.30;;;8.00;99.90;;;;;;4981030;28;20042;-51
2022/02/01 12:32:48;;;;;;;19.10;5.10;;;8.10;99.90;;;;;;4981068;28;20042;-51
2022/02/01 12:35:17;;;;;;;16.40;4.72;;;8.10;99.90;;;;;;4983082;28;20490;-52
2022/02/01 12:37:42;;;;;;;12.50;4.68;;;8.10;99.90;;;;;;4979729;28;20042;-52
2022/02/01 12:40:11;;;;;;;20.45;5.15;;;8.10;99.90;;;;;;4980529;28;20061;-49
2022/02/01 12:42:53;;;;;;;17.10;5.15;;;8.10;99.90;;;;;;4980481;28;20042;-51
2022/02/01 12:48:05;;;;;;;17.23;4.53;;;8.20;99.90;;;;;;4979246;28;20049;-51
2022/02/01 12:50:31;;;;;;;14.13;3.47;;;8.10;99.90;;;;;;4983103;28;20067;-51
2022/02/01 12:52:59;;;;;;;19.88;4.10;;;8.20;99.90;;;;;;4984889;28;20050;-52
2022/02/01 12:55:26;;;;;;;11.65;4.38;;;8.30;99.90;;;;;;4981123;28;20343;-53
2022/02/01 12:57:53;;;;;;;14.52;3.50;;;8.30;99.90;;;;;;4992810;28;20498;-52
2022/02/01 13:00:21;;;;;;;17.60;3.42;;;8.30;99.90;;;;;;4979033;28;20046;-51
2022/02/01 13:02:47;;;;;;;16.55;3.80;;;8.30;99.90;;;;;;4988603;28;20387;-49
2022/02/01 13:05:17;;;;;;;19.38;3.92;;;8.40;99.90;;;;;;4988273;28;20105;-50
2022/02/01 13:08:21;;;;;;;13.10;3.60;;;8.40;99.90;;;;;;4986187;28;20057;-50
2022/02/01 13:21:03;;;;;;;14.38;3.65;;;8.50;99.90;;;;;;4991866;28;20069;-50
2022/02/01 13:23:37;;;;;;;24.13;3.30;;;8.50;99.90;;;;;;4992298;28;20505;-50
2022/02/01 13:26:08;;;;;;;16.65;3.30;;;8.60;99.90;;;;;;4982991;28;20494;-53
2022/02/01 13:28:35;;;;;;;20.70;3.72;;;8.60;99.90;;;;;;4990680;28;20042;-50
2022/02/01 13:31:07;;;;;;;21.17;3.28;;;8.60;99.90;;;;;;4991314;28;20074;-49
2022/02/01 13:33:32;;;;;;;13.32;2.97;;;8.70;99.90;;;;;;4993645;28;20081;-50
2022/02/01 13:35:58;;;;;;;19.52;3.78;;;8.70;99.90;;;;;;4992542;28;20066;-51
2022/02/01 13:38:25;;;;;;;20.17;3.42;;;8.70;99.90;;;;;;4988616;28;20046;-50
2022/02/01 13:40:54;;;;;;;17.33;3.47;;;8.70;99.90;;;;;;4991351;28;20031;-54
2022/02/01 13:43:24;;;;;;;19.02;3.10;;;8.80;99.90;;;;;;4992300;28;20121;-50
2022/02/01 13:45:51;;;;;;;23.52;3.55;;;8.70;99.90;;;;;;4992475;28;20065;-50
2022/02/01 13:48:26;;;;;;;19.17;3.08;;;8.70;99.90;;;;;;4985031;28;20035;-52
2022/02/01 13:50:55;;;;;;;17.48;3.45;;;8.70;99.90;;;;;;4986165;28;20034;-50
2022/02/01 13:53:21;;;;;;;23.10;3.75;;;8.70;99.90;;;;;;4991290;28;20049;-52
2022/02/01 13:55:59;;;;;;;19.50;3.13;;;8.70;99.90;;;;;;4992795;28;20038;-52
2022/02/01 13:58:25;;;;;;;19.05;2.80;;;8.80;99.90;;;;;;4992401;28;20045;-53
2022/02/01 14:00:54;;;;;;;23.70;3.30;;;8.80;99.90;;;;;;4992651;28;20034;-50
2022/02/01 14:03:39;;;;;;;24.25;3.35;;;8.80;99.90;;;;;;4991943;28;20069;-53
2022/02/01 14:06:17;;;;;;;20.75;3.25;;;8.80;99.90;;;;;;4991733;28;20035;-50
2022/02/01 14:09:04;;;;;;;22.23;3.72;;;8.80;99.90;;;;;;4990102;28;20039;-53
2022/02/01 14:11:58;;;;;;;15.90;2.67;;;8.80;99.90;;;;;;4988143;28;20038;-53
2022/02/01 14:35:49;;;;;;;32.63;3.83;;;8.90;99.90;;;;;;4989784;28;20046;-50
2022/02/01 14:43:45;;;;;;;20.75;3.67;;;8.90;99.90;;;;;;4990504;28;20521;-53
2022/02/01 14:46:11;;;;;;;18.52;3.00;;;8.90;99.90;;;;;;4990901;28;20046;-52
2022/02/01 14:48:37;;;;;;;25.15;4.13;;;8.90;99.90;;;;;;4989097;28;20042;-53
2022/02/01 14:51:07;;;;;;;25.35;4.10;;;8.80;99.90;;;;;;4988535;28;20243;-50
2022/02/01 14:53:33;;;;;;;22.88;3.75;;;8.90;99.90;;;;;;4988138;28;20122;-50
2022/02/01 14:56:19;;;;;;;21.65;3.10;;;8.90;99.90;;;;;;4989013;28;20121;-50
2022/02/01 15:07:05;;;;;;;19.50;2.63;;;8.80;99.90;;;;;;4977992;28;20058;-53
2022/02/01 15:14:59;;;;;;;23.48;4.18;;;8.90;99.90;;;;;;4976520;28;20044;-55
2022/02/01 15:17:25;;;;;;;26.08;3.50;;;9.00;99.90;;;;;;4977972;28;20403;-53
2022/02/01 15:19:51;;;;;;;32.70;4.35;;;8.90;99.90;;;;;;4977225;28;20042;-53
2022/02/01 15:22:16;;;;;;;17.35;3.75;;;8.90;99.90;;;;;;4973993;28;20047;-51
2022/02/01 15:24:42;;;;;;;28.08;3.88;;;8.80;99.90;;;;;;4974409;28;20525;-55